Terminal Aerodrome Forecast
Issued by NWS Des Moines, IA

Home | Current Version | Previous Version | Text Only | Print | Product List | Glossary On
Versions: 1 2 3 4 5 6 7 8 9 10 11 12 13 14 15
000
FTUS43 KDMX 091739
TAFDSM
TAF
KDSM 091739Z 0918/1018 VRB05KT P6SM SCT080 BKN180
     FM101700 15008KT P6SM SCT030 OVC090=

USA.gov is the U.S. government's official web portal to all federal, state and local government web resources and services.